sensor_id;sensor_type;location;lat;lon;timestamp;P1;durP1;ratioP1;P2;durP2;ratioP2
5345;SDS011;2695;49.444;11.054;2022-09-02T00:00:09;3.37;;;1.60;;
5345;SDS011;2695;49.444;11.054;2022-09-02T00:02:39;4.20;;;1.40;;
5345;SDS011;2695;49.444;11.054;2022-09-02T00:05:07;3.93;;;1.83;;
5345;SDS011;2695;49.444;11.054;2022-09-02T00:07:35;2.97;;;1.83;;
5345;SDS011;2695;49.444;11.054;2022-09-02T00:10:03;4.00;;;1.77;;
5345;SDS011;2695;49.444;11.054;2022-09-02T00:12:34;1.60;;;1.50;;
5345;SDS011;2695;49.444;11.054;2022-09-02T00:15:05;2.70;;;1.93;;
5345;SDS011;2695;49.444;11.054;2022-09-02T00:17:33;4.70;;;1.80;;
5345;SDS011;2695;49.444;11.054;2022-09-02T00:20:01;1.63;;;1.30;;
5345;SDS011;2695;49.444;11.054;2022-09-02T00:22:30;7.10;;;1.93;;
5345;SDS011;2695;49.444;11.054;2022-09-02T00:24:58;1.57;;;1.33;;
5345;SDS011;2695;49.444;11.054;2022-09-02T00:27:26;4.13;;;1.80;;
5345;SDS011;2695;49.444;11.054;2022-09-02T00:29:54;1.70;;;1.43;;
5345;SDS011;2695;49.444;11.054;2022-09-02T00:32:24;2.50;;;1.80;;
5345;SDS011;2695;49.444;11.054;2022-09-02T00:34:52;3.30;;;1.70;;
5345;SDS011;2695;49.444;11.054;2022-09-02T00:37:21;4.97;;;1.80;;
5345;SDS011;2695;49.444;11.054;2022-09-02T00:39:50;3.20;;;1.80;;
5345;SDS011;2695;49.444;11.054;2022-09-02T00:42:18;2.93;;;1.67;;
5345;SDS011;2695;49.444;11.054;2022-09-02T00:44:46;3.60;;;2.10;;
5345;SDS011;2695;49.444;11.054;2022-09-02T00:47:14;3.47;;;2.07;;
5345;SDS011;2695;49.444;11.054;2022-09-02T00:49:45;2.57;;;1.60;;
5345;SDS011;2695;49.444;11.054;2022-09-02T00:52:16;2.30;;;1.73;;
5345;SDS011;2695;49.444;11.054;2022-09-02T00:54:49;2.37;;;1.83;;
5345;SDS011;2695;49.444;11.054;2022-09-02T00:57:20;1.60;;;1.50;;
5345;SDS011;2695;49.444;11.054;2022-09-02T00:59:53;2.40;;;1.70;;
5345;SDS011;2695;49.444;11.054;2022-09-02T01:02:25;1.70;;;1.57;;
5345;SDS011;2695;49.444;11.054;2022-09-02T01:04:55;2.30;;;1.63;;
5345;SDS011;2695;49.444;11.054;2022-09-02T01:07:24;2.10;;;1.87;;
5345;SDS011;2695;49.444;11.054;2022-09-02T01:09:57;3.70;;;1.50;;
5345;SDS011;2695;49.444;11.054;2022-09-02T01:12:25;2.20;;;1.60;;
5345;SDS011;2695;49.444;11.054;2022-09-02T01:14:55;1.63;;;1.50;;
5345;SDS011;2695;49.444;11.054;2022-09-02T01:17:24;3.30;;;1.77;;
5345;SDS011;2695;49.444;11.054;2022-09-02T01:19:54;3.60;;;2.00;;
5345;SDS011;2695;49.444;11.054;2022-09-02T01:22:30;2.83;;;1.60;;
5345;SDS011;2695;49.444;11.054;2022-09-02T01:24:59;2.03;;;1.50;;
5345;SDS011;2695;49.444;11.054;2022-09-02T01:27:30;2.53;;;1.67;;
5345;SDS011;2695;49.444;11.054;2022-09-02T01:29:58;3.27;;;1.73;;
5345;SDS011;2695;49.444;11.054;2022-09-02T01:32:28;4.10;;;1.97;;
5345;SDS011;2695;49.444;11.054;2022-09-02T01:34:56;2.90;;;1.93;;
5345;SDS011;2695;49.444;11.054;2022-09-02T01:37:24;1.70;;;1.60;;
5345;SDS011;2695;49.444;11.054;2022-09-02T01:39:54;4.87;;;1.63;;
5345;SDS011;2695;49.444;11.054;2022-09-02T01:42:23;2.43;;;1.80;;
5345;SDS011;2695;49.444;11.054;2022-09-02T01:44:51;3.20;;;1.57;;
5345;SDS011;2695;49.444;11.054;2022-09-02T01:47:20;2.73;;;1.30;;
5345;SDS011;2695;49.444;11.054;2022-09-02T01:49:50;4.27;;;1.70;;
5345;SDS011;2695;49.444;11.054;2022-09-02T01:52:19;1.90;;;1.60;;
5345;SDS011;2695;49.444;11.054;2022-09-02T01:54:49;3.50;;;1.73;;
5345;SDS011;2695;49.444;11.054;2022-09-02T01:57:19;1.70;;;1.30;;
5345;SDS011;2695;49.444;11.054;2022-09-02T01:59:49;2.80;;;2.00;;
5345;SDS011;2695;49.444;11.054;2022-09-02T02:02:18;5.63;;;2.30;;
5345;SDS011;2695;49.444;11.054;2022-09-02T02:04:47;2.50;;;2.10;;
5345;SDS011;2695;49.444;11.054;2022-09-02T02:07:16;2.83;;;1.70;;
5345;SDS011;2695;49.444;11.054;2022-09-02T02:09:46;2.93;;;1.43;;
5345;SDS011;2695;49.444;11.054;2022-09-02T02:12:14;2.90;;;1.83;;
5345;SDS011;2695;49.444;11.054;2022-09-02T02:14:43;2.17;;;1.97;;
5345;SDS011;2695;49.444;11.054;2022-09-02T02:17:11;2.90;;;1.77;;
5345;SDS011;2695;49.444;11.054;2022-09-02T02:19:40;2.80;;;1.70;;
5345;SDS011;2695;49.444;11.054;2022-09-02T02:22:09;2.20;;;1.33;;
5345;SDS011;2695;49.444;11.054;2022-09-02T02:24:37;2.30;;;1.57;;
5345;SDS011;2695;49.444;11.054;2022-09-02T02:27:05;3.57;;;2.30;;
5345;SDS011;2695;49.444;11.054;2022-09-02T02:29:33;7.10;;;2.20;;
5345;SDS011;2695;49.444;11.054;2022-09-02T02:32:03;2.43;;;1.83;;
5345;SDS011;2695;49.444;11.054;2022-09-02T02:34:32;3.87;;;1.90;;
5345;SDS011;2695;49.444;11.054;2022-09-02T02:37:00;2.40;;;1.83;;
5345;SDS011;2695;49.444;11.054;2022-09-02T02:39:28;2.10;;;1.90;;
5345;SDS011;2695;49.444;11.054;2022-09-02T02:41:56;5.27;;;2.60;;
5345;SDS011;2695;49.444;11.054;2022-09-02T02:44:24;7.13;;;2.40;;
5345;SDS011;2695;49.444;11.054;2022-09-02T02:46:54;5.90;;;2.03;;
5345;SDS011;2695;49.444;11.054;2022-09-02T02:49:25;2.53;;;1.90;;
5345;SDS011;2695;49.444;11.054;2022-09-02T02:51:53;2.73;;;2.10;;
5345;SDS011;2695;49.444;11.054;2022-09-02T02:54:21;3.20;;;2.10;;
5345;SDS011;2695;49.444;11.054;2022-09-02T02:57:00;8.60;;;2.03;;
5345;SDS011;2695;49.444;11.054;2022-09-02T02:59:31;2.80;;;2.03;;
5345;SDS011;2695;49.444;11.054;2022-09-02T03:01:59;6.50;;;2.30;;
5345;SDS011;2695;49.444;11.054;2022-09-02T03:04:29;3.23;;;2.00;;
5345;SDS011;2695;49.444;11.054;2022-09-02T03:09:39;2.47;;;2.13;;
5345;SDS011;2695;49.444;11.054;2022-09-02T03:12:08;2.60;;;1.53;;
5345;SDS011;2695;49.444;11.054;2022-09-02T03:14:36;3.37;;;1.93;;
5345;SDS011;2695;49.444;11.054;2022-09-02T03:17:04;2.00;;;1.80;;
5345;SDS011;2695;49.444;11.054;2022-09-02T03:19:34;3.57;;;1.80;;
5345;SDS011;2695;49.444;11.054;2022-09-02T03:22:02;2.53;;;1.70;;
5345;SDS011;2695;49.444;11.054;2022-09-02T03:24:30;2.10;;;1.70;;
5345;SDS011;2695;49.444;11.054;2022-09-02T03:26:58;3.23;;;2.03;;
5345;SDS011;2695;49.444;11.054;2022-09-02T03:29:26;4.63;;;1.90;;
5345;SDS011;2695;49.444;11.054;2022-09-02T03:31:54;3.90;;;2.37;;
5345;SDS011;2695;49.444;11.054;2022-09-02T03:34:23;2.40;;;1.50;;
5345;SDS011;2695;49.444;11.054;2022-09-02T03:36:52;3.30;;;1.97;;
5345;SDS011;2695;49.444;11.054;2022-09-02T03:39:20;3.53;;;2.10;;
5345;SDS011;2695;49.444;11.054;2022-09-02T03:41:48;4.23;;;1.60;;
5345;SDS011;2695;49.444;11.054;2022-09-02T03:44:16;1.80;;;1.70;;
5345;SDS011;2695;49.444;11.054;2022-09-02T03:46:44;3.50;;;1.80;;
5345;SDS011;2695;49.444;11.054;2022-09-02T03:49:13;4.40;;;1.97;;
5345;SDS011;2695;49.444;11.054;2022-09-02T03:51:41;1.97;;;1.77;;
5345;SDS011;2695;49.444;11.054;2022-09-02T03:54:11;3.07;;;1.80;;
5345;SDS011;2695;49.444;11.054;2022-09-02T03:56:39;3.50;;;1.87;;
5345;SDS011;2695;49.444;11.054;2022-09-02T03:59:07;2.07;;;1.70;;
5345;SDS011;2695;49.444;11.054;2022-09-02T04:01:36;5.83;;;1.90;;
5345;SDS011;2695;49.444;11.054;2022-09-02T04:04:04;2.67;;;2.03;;
5345;SDS011;2695;49.444;11.054;2022-09-02T04:06:32;2.60;;;1.90;;
5345;SDS011;2695;49.444;11.054;2022-09-02T04:09:01;2.53;;;1.80;;
5345;SDS011;2695;49.444;11.054;2022-09-02T04:11:31;2.80;;;2.00;;
5345;SDS011;2695;49.444;11.054;2022-09-02T04:13:59;2.20;;;1.80;;
5345;SDS011;2695;49.444;11.054;2022-09-02T04:16:27;2.27;;;1.80;;
5345;SDS011;2695;49.444;11.054;2022-09-02T04:18:57;3.60;;;2.20;;
5345;SDS011;2695;49.444;11.054;2022-09-02T04:21:27;9.57;;;2.23;;
5345;SDS011;2695;49.444;11.054;2022-09-02T04:23:58;2.50;;;1.60;;
5345;SDS011;2695;49.444;11.054;2022-09-02T04:26:26;4.17;;;2.00;;
5345;SDS011;2695;49.444;11.054;2022-09-02T04:28:56;2.60;;;1.70;;
5345;SDS011;2695;49.444;11.054;2022-09-02T04:31:24;3.87;;;1.90;;
5345;SDS011;2695;49.444;11.054;2022-09-02T04:33:55;6.10;;;2.00;;
5345;SDS011;2695;49.444;11.054;2022-09-02T04:36:25;6.07;;;1.67;;
5345;SDS011;2695;49.444;11.054;2022-09-02T04:38:56;3.97;;;1.77;;
5345;SDS011;2695;49.444;11.054;2022-09-02T04:41:26;8.20;;;1.90;;
5345;SDS011;2695;49.444;11.054;2022-09-02T04:43:58;1.50;;;1.40;;
5345;SDS011;2695;49.444;11.054;2022-09-02T04:46:26;2.37;;;1.77;;
5345;SDS011;2695;49.444;11.054;2022-09-02T04:49:00;5.10;;;1.77;;
5345;SDS011;2695;49.444;11.054;2022-09-02T04:51:28;4.37;;;2.33;;
5345;SDS011;2695;49.444;11.054;2022-09-02T04:53:56;5.00;;;2.50;;
5345;SDS011;2695;49.444;11.054;2022-09-02T04:56:26;3.53;;;1.40;;
5345;SDS011;2695;49.444;11.054;2022-09-02T04:58:57;4.13;;;1.43;;
5345;SDS011;2695;49.444;11.054;2022-09-02T05:01:28;1.47;;;1.37;;
5345;SDS011;2695;49.444;11.054;2022-09-02T05:03:58;4.17;;;1.80;;
5345;SDS011;2695;49.444;11.054;2022-09-02T05:06:28;3.30;;;1.80;;
5345;SDS011;2695;49.444;11.054;2022-09-02T05:08:56;2.70;;;1.57;;
5345;SDS011;2695;49.444;11.054;2022-09-02T05:11:26;4.83;;;1.80;;
5345;SDS011;2695;49.444;11.054;2022-09-02T05:13:56;3.50;;;1.90;;
5345;SDS011;2695;49.444;11.054;2022-09-02T05:16:27;1.93;;;1.77;;
5345;SDS011;2695;49.444;11.054;2022-09-02T05:18:57;3.80;;;1.60;;
5345;SDS011;2695;49.444;11.054;2022-09-02T05:21:26;5.90;;;1.70;;
5345;SDS011;2695;49.444;11.054;2022-09-02T05:23:54;3.83;;;1.80;;
5345;SDS011;2695;49.444;11.054;2022-09-02T05:26:22;4.63;;;1.63;;
5345;SDS011;2695;49.444;11.054;2022-09-02T05:28:51;3.03;;;1.70;;
5345;SDS011;2695;49.444;11.054;2022-09-02T05:31:21;2.80;;;1.70;;
5345;SDS011;2695;49.444;11.054;2022-09-02T05:33:49;7.67;;;2.40;;
5345;SDS011;2695;49.444;11.054;2022-09-02T05:36:18;4.87;;;1.97;;
5345;SDS011;2695;49.444;11.054;2022-09-02T05:38:48;7.77;;;2.50;;
5345;SDS011;2695;49.444;11.054;2022-09-02T05:41:18;2.70;;;1.63;;
5345;SDS011;2695;49.444;11.054;2022-09-02T05:43:49;2.90;;;1.90;;
5345;SDS011;2695;49.444;11.054;2022-09-02T05:46:18;1.77;;;1.60;;
5345;SDS011;2695;49.444;11.054;2022-09-02T05:48:50;3.17;;;1.60;;
5345;SDS011;2695;49.444;11.054;2022-09-02T05:51:39;9.25;;;2.70;;
5345;SDS011;2695;49.444;11.054;2022-09-02T05:54:10;3.13;;;1.88;;
5345;SDS011;2695;49.444;11.054;2022-09-02T05:56:40;2.13;;;1.40;;
5345;SDS011;2695;49.444;11.054;2022-09-02T05:59:10;5.32;;;1.70;;
5345;SDS011;2695;49.444;11.054;2022-09-02T06:01:40;2.03;;;1.63;;
5345;SDS011;2695;49.444;11.054;2022-09-02T06:04:08;3.45;;;1.70;;
5345;SDS011;2695;49.444;11.054;2022-09-02T06:06:36;3.58;;;1.73;;
5345;SDS011;2695;49.444;11.054;2022-09-02T06:09:04;3.85;;;1.70;;
5345;SDS011;2695;49.444;11.054;2022-09-02T06:11:34;5.22;;;1.60;;
5345;SDS011;2695;49.444;11.054;2022-09-02T06:14:05;5.75;;;1.95;;
5345;SDS011;2695;49.444;11.054;2022-09-02T06:16:34;2.83;;;1.70;;
5345;SDS011;2695;49.444;11.054;2022-09-02T06:19:04;6.72;;;2.20;;
5345;SDS011;2695;49.444;11.054;2022-09-02T06:21:32;3.83;;;1.92;;
5345;SDS011;2695;49.444;11.054;2022-09-02T06:24:03;1.93;;;1.47;;
5345;SDS011;2695;49.444;11.054;2022-09-02T06:26:32;4.63;;;1.73;;
5345;SDS011;2695;49.444;11.054;2022-09-02T06:29:02;2.97;;;1.88;;
5345;SDS011;2695;49.444;11.054;2022-09-02T06:31:31;3.03;;;1.90;;
5345;SDS011;2695;49.444;11.054;2022-09-02T06:34:21;9.90;;;1.90;;
5345;SDS011;2695;49.444;11.054;2022-09-02T06:36:52;3.05;;;1.48;;
5345;SDS011;2695;49.444;11.054;2022-09-02T06:39:21;4.10;;;1.63;;
5345;SDS011;2695;49.444;11.054;2022-09-02T06:41:51;2.30;;;1.60;;
5345;SDS011;2695;49.444;11.054;2022-09-02T06:44:19;2.00;;;1.55;;
5345;SDS011;2695;49.444;11.054;2022-09-02T06:46:51;3.97;;;2.17;;
5345;SDS011;2695;49.444;11.054;2022-09-02T06:49:25;2.75;;;1.75;;
5345;SDS011;2695;49.444;11.054;2022-09-02T06:51:54;3.28;;;2.00;;
5345;SDS011;2695;49.444;11.054;2022-09-02T06:54:25;4.05;;;1.70;;
5345;SDS011;2695;49.444;11.054;2022-09-02T06:56:54;3.83;;;1.95;;
5345;SDS011;2695;49.444;11.054;2022-09-02T06:59:28;3.85;;;1.95;;
5345;SDS011;2695;49.444;11.054;2022-09-02T07:01:57;2.83;;;1.63;;
5345;SDS011;2695;49.444;11.054;2022-09-02T07:04:26;1.50;;;1.40;;
5345;SDS011;2695;49.444;11.054;2022-09-02T07:07:12;4.75;;;1.98;;
5345;SDS011;2695;49.444;11.054;2022-09-02T07:09:40;3.50;;;1.58;;
5345;SDS011;2695;49.444;11.054;2022-09-02T07:12:09;4.70;;;1.80;;
5345;SDS011;2695;49.444;11.054;2022-09-02T07:14:38;5.70;;;1.98;;
5345;SDS011;2695;49.444;11.054;2022-09-02T07:17:08;3.08;;;1.55;;
5345;SDS011;2695;49.444;11.054;2022-09-02T07:19:39;3.28;;;1.45;;
5345;SDS011;2695;49.444;11.054;2022-09-02T07:22:07;2.35;;;1.60;;
5345;SDS011;2695;49.444;11.054;2022-09-02T07:24:37;2.63;;;1.50;;
5345;SDS011;2695;49.444;11.054;2022-09-02T07:27:05;2.58;;;1.45;;
5345;SDS011;2695;49.444;11.054;2022-09-02T07:29:34;2.22;;;1.45;;
5345;SDS011;2695;49.444;11.054;2022-09-02T07:32:02;5.75;;;1.48;;
5345;SDS011;2695;49.444;11.054;2022-09-02T07:34:31;4.38;;;1.75;;
5345;SDS011;2695;49.444;11.054;2022-09-02T07:37:00;2.83;;;1.58;;
5345;SDS011;2695;49.444;11.054;2022-09-02T07:39:35;1.58;;;1.48;;
5345;SDS011;2695;49.444;11.054;2022-09-02T07:42:04;5.57;;;1.55;;
5345;SDS011;2695;49.444;11.054;2022-09-02T07:44:32;1.80;;;1.23;;
5345;SDS011;2695;49.444;11.054;2022-09-02T07:47:01;1.67;;;1.58;;
5345;SDS011;2695;49.444;11.054;2022-09-02T07:49:29;3.03;;;1.30;;
5345;SDS011;2695;49.444;11.054;2022-09-02T07:52:19;1.63;;;1.40;;
5345;SDS011;2695;49.444;11.054;2022-09-02T07:54:47;2.65;;;1.40;;
5345;SDS011;2695;49.444;11.054;2022-09-02T07:57:15;5.13;;;1.60;;
5345;SDS011;2695;49.444;11.054;2022-09-02T07:59:43;4.50;;;1.40;;
5345;SDS011;2695;49.444;11.054;2022-09-02T08:02:13;6.43;;;1.52;;
5345;SDS011;2695;49.444;11.054;2022-09-02T08:04:43;3.88;;;2.05;;
5345;SDS011;2695;49.444;11.054;2022-09-02T08:07:11;4.70;;;1.80;;
5345;SDS011;2695;49.444;11.054;2022-09-02T08:09:43;3.78;;;1.65;;
5345;SDS011;2695;49.444;11.054;2022-09-02T08:12:11;4.05;;;2.20;;
5345;SDS011;2695;49.444;11.054;2022-09-02T08:14:45;6.13;;;2.40;;
5345;SDS011;2695;49.444;11.054;2022-09-02T08:17:16;2.38;;;1.58;;
5345;SDS011;2695;49.444;11.054;2022-09-02T08:19:45;1.10;;;0.98;;
5345;SDS011;2695;49.444;11.054;2022-09-02T08:22:13;1.50;;;1.27;;
5345;SDS011;2695;49.444;11.054;2022-09-02T08:24:41;2.92;;;1.20;;
5345;SDS011;2695;49.444;11.054;2022-09-02T08:27:10;1.45;;;0.90;;
5345;SDS011;2695;49.444;11.054;2022-09-02T08:29:38;2.25;;;1.33;;
5345;SDS011;2695;49.444;11.054;2022-09-02T08:32:07;1.45;;;1.13;;
5345;SDS011;2695;49.444;11.054;2022-09-02T08:34:35;1.77;;;1.30;;
5345;SDS011;2695;49.444;11.054;2022-09-02T08:37:03;2.63;;;1.80;;
5345;SDS011;2695;49.444;11.054;2022-09-02T08:39:32;3.33;;;1.55;;
5345;SDS011;2695;49.444;11.054;2022-09-02T08:42:04;2.35;;;1.85;;
5345;SDS011;2695;49.444;11.054;2022-09-02T08:44:36;1.60;;;1.30;;
5345;SDS011;2695;49.444;11.054;2022-09-02T08:47:08;1.67;;;1.45;;
5345;SDS011;2695;49.444;11.054;2022-09-02T08:49:42;7.18;;;1.50;;
5345;SDS011;2695;49.444;11.054;2022-09-02T08:52:14;2.88;;;1.77;;
5345;SDS011;2695;49.444;11.054;2022-09-02T08:54:50;1.50;;;1.40;;
5345;SDS011;2695;49.444;11.054;2022-09-02T08:57:20;1.83;;;1.15;;
5345;SDS011;2695;49.444;11.054;2022-09-02T08:59:54;3.45;;;1.40;;
5345;SDS011;2695;49.444;11.054;2022-09-02T09:02:28;3.25;;;1.30;;
5345;SDS011;2695;49.444;11.054;2022-09-02T09:05:09;2.63;;;1.42;;
5345;SDS011;2695;49.444;11.054;2022-09-02T09:07:51;3.45;;;1.48;;
5345;SDS011;2695;49.444;11.054;2022-09-02T09:10:27;3.20;;;1.20;;
5345;SDS011;2695;49.444;11.054;2022-09-02T09:13:03;4.93;;;1.30;;
5345;SDS011;2695;49.444;11.054;2022-09-02T09:16:08;5.68;;;1.40;;
5345;SDS011;2695;49.444;11.054;2022-09-02T09:18:47;2.40;;;1.50;;
5345;SDS011;2695;49.444;11.054;2022-09-02T09:21:21;2.42;;;1.40;;
5345;SDS011;2695;49.444;11.054;2022-09-02T09:23:55;1.77;;;1.20;;
5345;SDS011;2695;49.444;11.054;2022-09-02T09:26:27;2.45;;;1.33;;
5345;SDS011;2695;49.444;11.054;2022-09-02T09:29:01;2.40;;;1.15;;
5345;SDS011;2695;49.444;11.054;2022-09-02T09:31:32;2.80;;;1.33;;
5345;SDS011;2695;49.444;11.054;2022-09-02T09:34:04;2.45;;;0.98;;
5345;SDS011;2695;49.444;11.054;2022-09-02T09:36:50;3.10;;;1.10;;
5345;SDS011;2695;49.444;11.054;2022-09-02T09:39:22;1.27;;;1.02;;
5345;SDS011;2695;49.444;11.054;2022-09-02T09:41:53;1.50;;;1.20;;
5345;SDS011;2695;49.444;11.054;2022-09-02T09:44:27;1.38;;;1.10;;
5345;SDS011;2695;49.444;11.054;2022-09-02T09:47:04;1.30;;;1.20;;
5345;SDS011;2695;49.444;11.054;2022-09-02T09:49:40;1.33;;;0.88;;
5345;SDS011;2695;49.444;11.054;2022-09-02T09:52:08;0.90;;;0.85;;
5345;SDS011;2695;49.444;11.054;2022-09-02T09:54:36;4.43;;;1.35;;
5345;SDS011;2695;49.444;11.054;2022-09-02T09:57:14;1.33;;;1.00;;
5345;SDS011;2695;49.444;11.054;2022-09-02T09:59:47;2.05;;;1.08;;
5345;SDS011;2695;49.444;11.054;2022-09-02T10:02:23;3.13;;;1.15;;
5345;SDS011;2695;49.444;11.054;2022-09-02T10:05:09;2.75;;;0.80;;
5345;SDS011;2695;49.444;11.054;2022-09-02T10:07:44;1.80;;;1.00;;
5345;SDS011;2695;49.444;11.054;2022-09-02T10:10:22;2.45;;;1.15;;
5345;SDS011;2695;49.444;11.054;2022-09-02T10:12:53;2.40;;;1.13;;
5345;SDS011;2695;49.444;11.054;2022-09-02T10:15:30;4.75;;;1.00;;
5345;SDS011;2695;49.444;11.054;2022-09-02T10:18:11;3.17;;;1.00;;
5345;SDS011;2695;49.444;11.054;2022-09-02T10:20:50;1.60;;;1.00;;
5345;SDS011;2695;49.444;11.054;2022-09-02T10:23:43;1.38;;;0.90;;
5345;SDS011;2695;49.444;11.054;2022-09-02T10:26:21;1.42;;;1.05;;
5345;SDS011;2695;49.444;11.054;2022-09-02T10:28:58;1.15;;;0.98;;
5345;SDS011;2695;49.444;11.054;2022-09-02T10:31:36;3.00;;;1.20;;
5345;SDS011;2695;49.444;11.054;2022-09-02T10:34:17;1.30;;;0.93;;
5345;SDS011;2695;49.444;11.054;2022-09-02T10:39:52;1.63;;;1.20;;
5345;SDS011;2695;49.444;11.054;2022-09-02T10:42:34;4.28;;;1.27;;
5345;SDS011;2695;49.444;11.054;2022-09-02T10:45:12;2.03;;;1.35;;
5345;SDS011;2695;49.444;11.054;2022-09-02T10:47:44;1.33;;;1.15;;
5345;SDS011;2695;49.444;11.054;2022-09-02T10:50:21;2.00;;;1.30;;
5345;SDS011;2695;49.444;11.054;2022-09-02T10:53:04;1.98;;;0.90;;
5345;SDS011;2695;49.444;11.054;2022-09-02T10:56:04;2.97;;;1.20;;
5345;SDS011;2695;49.444;11.054;2022-09-02T10:58:42;2.50;;;1.20;;
5345;SDS011;2695;49.444;11.054;2022-09-02T11:01:17;3.97;;;1.02;;
5345;SDS011;2695;49.444;11.054;2022-09-02T11:03:52;8.60;;;1.52;;
5345;SDS011;2695;49.444;11.054;2022-09-02T11:06:30;2.08;;;1.20;;
5345;SDS011;2695;49.444;11.054;2022-09-02T11:09:25;1.40;;;1.00;;
5345;SDS011;2695;49.444;11.054;2022-09-02T11:12:01;1.90;;;1.10;;
5345;SDS011;2695;49.444;11.054;2022-09-02T11:14:33;1.65;;;1.08;;
5345;SDS011;2695;49.444;11.054;2022-09-02T11:17:13;2.35;;;0.93;;
5345;SDS011;2695;49.444;11.054;2022-09-02T11:19:47;2.88;;;1.00;;
5345;SDS011;2695;49.444;11.054;2022-09-02T11:22:26;1.02;;;0.80;;
5345;SDS011;2695;49.444;11.054;2022-09-02T11:24:59;3.03;;;0.90;;
5345;SDS011;2695;49.444;11.054;2022-09-02T11:27:35;5.70;;;1.50;;
5345;SDS011;2695;49.444;11.054;2022-09-02T11:30:10;1.42;;;1.23;;
5345;SDS011;2695;49.444;11.054;2022-09-02T11:32:42;1.50;;;0.90;;
5345;SDS011;2695;49.444;11.054;2022-09-02T11:35:17;1.20;;;1.10;;
5345;SDS011;2695;49.444;11.054;2022-09-02T11:37:56;2.22;;;1.15;;
5345;SDS011;2695;49.444;11.054;2022-09-02T11:40:29;4.68;;;1.10;;
5345;SDS011;2695;49.444;11.054;2022-09-02T11:43:20;1.67;;;0.80;;
5345;SDS011;2695;49.444;11.054;2022-09-02T11:45:57;3.00;;;0.90;;
5345;SDS011;2695;49.444;11.054;2022-09-02T11:48:51;4.38;;;0.95;;
5345;SDS011;2695;49.444;11.054;2022-09-02T11:54:33;1.10;;;1.00;;
5345;SDS011;2695;49.444;11.054;2022-09-02T11:57:05;1.63;;;1.20;;
5345;SDS011;2695;49.444;11.054;2022-09-02T12:02:40;1.07;;;0.90;;
5345;SDS011;2695;49.444;11.054;2022-09-02T12:11:38;1.27;;;0.93;;
5345;SDS011;2695;49.444;11.054;2022-09-02T12:14:11;6.00;;;0.90;;
5345;SDS011;2695;49.444;11.054;2022-09-02T12:17:45;1.50;;;0.93;;
5345;SDS011;2695;49.444;11.054;2022-09-02T12:27:08;1.13;;;0.90;;
5345;SDS011;2695;49.444;11.054;2022-09-02T12:29:51;1.00;;;0.80;;
5345;SDS011;2695;49.444;11.054;2022-09-02T12:38:23;2.90;;;1.20;;
5345;SDS011;2695;49.444;11.054;2022-09-02T12:46:55;1.40;;;0.73;;
5345;SDS011;2695;49.444;11.054;2022-09-02T12:49:36;2.03;;;1.23;;
5345;SDS011;2695;49.444;11.054;2022-09-02T12:52:11;1.83;;;1.17;;
5345;SDS011;2695;49.444;11.054;2022-09-02T12:55:13;3.60;;;1.10;;
5345;SDS011;2695;49.444;11.054;2022-09-02T12:57:46;2.50;;;1.23;;
5345;SDS011;2695;49.444;11.054;2022-09-02T13:00:24;2.13;;;0.80;;
5345;SDS011;2695;49.444;11.054;2022-09-02T13:03:11;4.83;;;1.30;;
5345;SDS011;2695;49.444;11.054;2022-09-02T13:06:03;3.73;;;1.00;;
5345;SDS011;2695;49.444;11.054;2022-09-02T13:08:48;1.53;;;1.20;;
5345;SDS011;2695;49.444;11.054;2022-09-02T13:11:50;1.30;;;1.00;;
5345;SDS011;2695;49.444;11.054;2022-09-02T13:14:46;2.30;;;1.03;;
5345;SDS011;2695;49.444;11.054;2022-09-02T13:17:33;1.13;;;1.03;;
5345;SDS011;2695;49.444;11.054;2022-09-02T13:23:30;2.60;;;1.13;;
5345;SDS011;2695;49.444;11.054;2022-09-02T13:26:31;1.40;;;1.00;;
5345;SDS011;2695;49.444;11.054;2022-09-02T13:29:43;6.33;;;1.97;;
5345;SDS011;2695;49.444;11.054;2022-09-02T13:32:31;6.40;;;1.40;;
5345;SDS011;2695;49.444;11.054;2022-09-02T13:35:01;1.77;;;1.00;;
5345;SDS011;2695;49.444;11.054;2022-09-02T13:37:32;1.83;;;1.40;;
5345;SDS011;2695;49.444;11.054;2022-09-02T13:40:04;2.00;;;1.00;;
5345;SDS011;2695;49.444;11.054;2022-09-02T13:42:45;4.23;;;1.47;;
5345;SDS011;2695;49.444;11.054;2022-09-02T13:45:16;2.17;;;1.10;;
5345;SDS011;2695;49.444;11.054;2022-09-02T13:47:47;1.57;;;1.07;;
5345;SDS011;2695;49.444;11.054;2022-09-02T13:50:18;4.10;;;0.90;;
5345;SDS011;2695;49.444;11.054;2022-09-02T13:52:49;2.60;;;1.00;;
5345;SDS011;2695;49.444;11.054;2022-09-02T13:55:40;1.10;;;0.87;;
5345;SDS011;2695;49.444;11.054;2022-09-02T13:58:20;1.83;;;0.93;;
5345;SDS011;2695;49.444;11.054;2022-09-02T14:00:52;5.37;;;1.40;;
5345;SDS011;2695;49.444;11.054;2022-09-02T14:03:28;2.30;;;0.90;;
5345;SDS011;2695;49.444;11.054;2022-09-02T14:05:59;1.00;;;0.80;;
5345;SDS011;2695;49.444;11.054;2022-09-02T14:08:28;5.20;;;1.20;;
5345;SDS011;2695;49.444;11.054;2022-09-02T14:10:57;2.13;;;1.00;;
5345;SDS011;2695;49.444;11.054;2022-09-02T14:13:33;1.30;;;1.00;;
5345;SDS011;2695;49.444;11.054;2022-09-02T14:19:08;5.30;;;1.23;;
5345;SDS011;2695;49.444;11.054;2022-09-02T14:21:43;1.77;;;0.90;;
5345;SDS011;2695;49.444;11.054;2022-09-02T14:24:13;4.13;;;1.27;;
5345;SDS011;2695;49.444;11.054;2022-09-02T14:26:49;1.93;;;1.20;;
5345;SDS011;2695;49.444;11.054;2022-09-02T14:29:20;6.03;;;1.43;;
5345;SDS011;2695;49.444;11.054;2022-09-02T14:32:01;1.03;;;0.93;;
5345;SDS011;2695;49.444;11.054;2022-09-02T14:34:39;3.57;;;0.97;;
5345;SDS011;2695;49.444;11.054;2022-09-02T14:37:17;1.00;;;0.90;;
5345;SDS011;2695;49.444;11.054;2022-09-02T14:42:42;0.90;;;0.70;;
5345;SDS011;2695;49.444;11.054;2022-09-02T14:45:12;1.73;;;1.00;;
5345;SDS011;2695;49.444;11.054;2022-09-02T14:47:41;2.60;;;1.17;;
5345;SDS011;2695;49.444;11.054;2022-09-02T14:50:10;1.80;;;1.10;;
5345;SDS011;2695;49.444;11.054;2022-09-02T14:52:44;1.10;;;0.90;;
5345;SDS011;2695;49.444;11.054;2022-09-02T14:58:13;1.40;;;1.30;;
5345;SDS011;2695;49.444;11.054;2022-09-02T15:00:50;2.30;;;0.90;;
5345;SDS011;2695;49.444;11.054;2022-09-02T15:03:21;1.67;;;1.57;;
5345;SDS011;2695;49.444;11.054;2022-09-02T15:05:51;3.97;;;1.03;;
5345;SDS011;2695;49.444;11.054;2022-09-02T15:08:20;1.43;;;0.90;;
5345;SDS011;2695;49.444;11.054;2022-09-02T15:10:49;1.20;;;0.80;;
5345;SDS011;2695;49.444;11.054;2022-09-02T15:13:23;1.53;;;1.40;;
5345;SDS011;2695;49.444;11.054;2022-09-02T15:15:57;1.50;;;1.10;;
5345;SDS011;2695;49.444;11.054;2022-09-02T15:18:27;1.07;;;0.80;;
5345;SDS011;2695;49.444;11.054;2022-09-02T15:20:57;1.70;;;1.30;;
5345;SDS011;2695;49.444;11.054;2022-09-02T15:23:29;2.63;;;1.13;;
5345;SDS011;2695;49.444;11.054;2022-09-02T15:26:02;3.33;;;0.90;;
5345;SDS011;2695;49.444;11.054;2022-09-02T15:28:30;1.60;;;0.90;;
5345;SDS011;2695;49.444;11.054;2022-09-02T15:30:59;5.87;;;1.30;;
5345;SDS011;2695;49.444;11.054;2022-09-02T15:33:28;1.97;;;1.03;;
5345;SDS011;2695;49.444;11.054;2022-09-02T15:36:07;1.93;;;0.97;;
5345;SDS011;2695;49.444;11.054;2022-09-02T15:38:37;1.30;;;1.00;;
5345;SDS011;2695;49.444;11.054;2022-09-02T15:41:10;1.03;;;0.93;;
5345;SDS011;2695;49.444;11.054;2022-09-02T15:43:40;1.23;;;0.87;;
5345;SDS011;2695;49.444;11.054;2022-09-02T15:46:16;1.80;;;1.10;;
5345;SDS011;2695;49.444;11.054;2022-09-02T15:48:46;2.43;;;1.00;;
5345;SDS011;2695;49.444;11.054;2022-09-02T15:51:18;1.97;;;1.40;;
5345;SDS011;2695;49.444;11.054;2022-09-02T15:53:52;1.77;;;1.10;;
5345;SDS011;2695;49.444;11.054;2022-09-02T15:56:22;1.40;;;1.10;;
5345;SDS011;2695;49.444;11.054;2022-09-02T15:58:58;2.60;;;1.10;;
5345;SDS011;2695;49.444;11.054;2022-09-02T16:01:27;2.17;;;0.87;;
5345;SDS011;2695;49.444;11.054;2022-09-02T16:03:58;1.50;;;0.90;;
5345;SDS011;2695;49.444;11.054;2022-09-02T16:06:28;2.00;;;0.97;;
5345;SDS011;2695;49.444;11.054;2022-09-02T16:08:58;9.43;;;1.20;;
5345;SDS011;2695;49.444;11.054;2022-09-02T16:11:27;1.17;;;0.90;;
5345;SDS011;2695;49.444;11.054;2022-09-02T16:13:58;1.73;;;0.97;;
5345;SDS011;2695;49.444;11.054;2022-09-02T16:16:26;2.00;;;0.83;;
5345;SDS011;2695;49.444;11.054;2022-09-02T16:18:55;2.30;;;0.90;;
5345;SDS011;2695;49.444;11.054;2022-09-02T16:21:23;1.87;;;1.13;;